createdAt,value
2022-08-03T00:00:24.260Z,2.50
2022-08-03T00:03:22.825Z,2.10
2022-08-03T00:06:23.320Z,2.60
2022-08-03T00:09:14.007Z,2.40
2022-08-03T00:12:04.224Z,2.40
2022-08-03T00:14:54.299Z,2.40
2022-08-03T00:17:52.665Z,2.50
2022-08-03T00:20:46.553Z,2.60
2022-08-03T00:23:51.481Z,2.90
2022-08-03T00:26:43.335Z,2.50
2022-08-03T00:29:33.546Z,2.70
2022-08-03T00:32:45.373Z,2.90
2022-08-03T00:35:50.270Z,5.00
2022-08-03T00:38:44.391Z,6.30
2022-08-03T00:41:34.625Z,3.90
2022-08-03T00:44:25.625Z,3.20
2022-08-03T00:47:16.467Z,3.10
2022-08-03T00:50:08.141Z,2.70
2022-08-03T00:53:01.182Z,2.60
2022-08-03T00:55:51.671Z,2.80
2022-08-03T00:58:41.866Z,2.60
2022-08-03T01:01:32.483Z,2.40
2022-08-03T01:04:24.456Z,2.60
2022-08-03T01:07:27.177Z,2.70
2022-08-03T01:10:26.466Z,2.40
2022-08-03T01:14:03.813Z,2.60
2022-08-03T01:16:46.347Z,2.50
2022-08-03T01:19:52.179Z,2.80
2022-08-03T01:23:12.204Z,2.00
2022-08-03T01:26:28.292Z,2.40
2022-08-03T01:29:44.777Z,2.70
2022-08-03T01:32:53.268Z,2.50
2022-08-03T01:35:56.167Z,2.50
2022-08-03T01:38:49.586Z,2.70
2022-08-03T01:41:46.573Z,2.70
2022-08-03T01:44:40.270Z,2.60
2022-08-03T01:47:32.262Z,2.70
2022-08-03T01:50:29.217Z,2.50
2022-08-03T01:53:21.157Z,3.10
2022-08-03T01:56:13.187Z,3.20
2022-08-03T01:59:04.761Z,2.90
2022-08-03T02:02:29.143Z,2.80
2022-08-03T02:05:21.428Z,2.90
2022-08-03T02:08:17.830Z,2.70
2022-08-03T02:11:09.340Z,2.90
2022-08-03T02:14:02.233Z,3.00
2022-08-03T02:16:53.058Z,2.70
2022-08-03T02:19:45.004Z,2.80
2022-08-03T02:22:37.878Z,2.90
2022-08-03T02:25:33.445Z,2.60
2022-08-03T02:28:28.970Z,2.30
2022-08-03T02:31:25.055Z,2.50
2022-08-03T02:34:18.675Z,2.50
2022-08-03T02:37:11.497Z,2.50
2022-08-03T02:40:06.009Z,2.40
2022-08-03T02:43:00.630Z,2.50
2022-08-03T02:45:52.977Z,2.40
2022-08-03T02:48:45.939Z,2.20
2022-08-03T02:51:38.051Z,2.20
2022-08-03T02:54:31.039Z,2.40
2022-08-03T02:57:23.309Z,2.20
2022-08-03T03:00:27.379Z,2.30
2022-08-03T03:03:19.090Z,2.40
2022-08-03T03:06:12.832Z,2.30
2022-08-03T03:09:11.480Z,2.10
2022-08-03T03:12:04.411Z,2.40
2022-08-03T03:14:55.553Z,2.70
2022-08-03T03:17:48.193Z,2.50
2022-08-03T03:20:41.175Z,2.80
2022-08-03T03:23:32.762Z,2.50
2022-08-03T03:26:42.296Z,2.50
2022-08-03T03:29:36.596Z,2.60
2022-08-03T03:32:32.276Z,2.70
2022-08-03T03:35:23.011Z,2.70
2022-08-03T03:38:13.436Z,2.60
2022-08-03T03:41:04.137Z,2.30
2022-08-03T03:43:55.135Z,2.40
2022-08-03T03:46:46.405Z,2.50
2022-08-03T03:49:38.029Z,2.70
2022-08-03T03:52:28.550Z,2.50
2022-08-03T03:55:20.830Z,2.60
2022-08-03T03:58:11.555Z,2.70
2022-08-03T04:01:02.702Z,2.70
2022-08-03T04:03:53.208Z,2.70
2022-08-03T04:07:01.328Z,2.50
2022-08-03T04:10:14.627Z,2.60
2022-08-03T04:13:10.159Z,2.90
2022-08-03T04:16:01.346Z,2.60
2022-08-03T04:18:56.078Z,2.70
2022-08-03T04:21:50.513Z,2.60
2022-08-03T04:24:44.991Z,2.50
2022-08-03T04:27:39.769Z,2.80
2022-08-03T04:30:47.897Z,2.90
2022-08-03T04:33:40.811Z,2.70
2022-08-03T04:36:38.384Z,2.50
2022-08-03T04:39:32.291Z,2.40
2022-08-03T04:42:24.905Z,2.40
2022-08-03T04:45:16.972Z,3.50
2022-08-03T04:48:08.943Z,3.80
2022-08-03T04:51:00.880Z,3.70
2022-08-03T04:53:51.592Z,3.80
2022-08-03T04:56:44.683Z,3.50
2022-08-03T04:59:35.582Z,3.50
2022-08-03T05:02:29.830Z,3.00
2022-08-03T05:05:20.006Z,3.20
2022-08-03T05:08:12.362Z,3.00
2022-08-03T05:11:03.054Z,3.20
2022-08-03T05:13:53.771Z,2.70
2022-08-03T05:16:44.404Z,2.90
2022-08-03T05:19:35.167Z,2.70
2022-08-03T05:22:25.853Z,3.00
2022-08-03T05:25:17.357Z,2.80
2022-08-03T05:28:10.283Z,2.80
2022-08-03T05:31:03.368Z,2.60
2022-08-03T05:33:55.116Z,3.30
2022-08-03T05:36:45.094Z,2.70
2022-08-03T05:40:11.819Z,2.80
2022-08-03T05:43:03.427Z,3.00
2022-08-03T05:46:01.514Z,2.70
2022-08-03T05:49:01.943Z,2.60
2022-08-03T05:52:00.424Z,2.70
2022-08-03T05:55:15.504Z,2.90
2022-08-03T05:58:07.134Z,2.80
2022-08-03T06:00:57.301Z,3.00
2022-08-03T06:03:47.075Z,2.80
2022-08-03T06:06:37.233Z,3.10
2022-08-03T06:09:56.604Z,2.90
2022-08-03T06:12:39.071Z,2.70
2022-08-03T06:15:30.837Z,2.70
2022-08-03T06:18:25.011Z,2.40
2022-08-03T06:21:17.649Z,2.70
2022-08-03T06:24:09.611Z,3.00
2022-08-03T06:27:11.057Z,3.30
2022-08-03T06:30:01.661Z,3.70
2022-08-03T06:32:52.539Z,3.30
2022-08-03T06:35:42.727Z,3.80
2022-08-03T06:38:34.848Z,3.40
2022-08-03T06:41:25.088Z,3.00
2022-08-03T06:44:15.631Z,3.10
2022-08-03T06:47:05.631Z,3.00
2022-08-03T06:50:17.091Z,3.50
2022-08-03T06:53:05.791Z,3.30
2022-08-03T06:55:55.519Z,2.80
2022-08-03T06:58:45.077Z,3.10
2022-08-03T07:01:34.994Z,3.10
2022-08-03T07:04:25.409Z,3.10
2022-08-03T07:07:16.043Z,3.50
2022-08-03T07:10:06.828Z,3.20
2022-08-03T07:12:56.976Z,3.40
2022-08-03T07:15:55.315Z,3.30
2022-08-03T07:18:45.937Z,3.00
2022-08-03T07:21:35.667Z,3.40
2022-08-03T07:24:25.814Z,3.00
2022-08-03T07:27:18.765Z,2.80
2022-08-03T07:30:11.561Z,3.00
2022-08-03T07:33:03.944Z,3.10
2022-08-03T07:35:54.069Z,3.00
2022-08-03T07:38:43.487Z,2.90
2022-08-03T07:41:33.246Z,2.80
2022-08-03T07:44:23.036Z,3.10
2022-08-03T07:47:22.237Z,3.10
2022-08-03T07:50:13.280Z,2.70
2022-08-03T07:53:05.599Z,2.70
2022-08-03T07:55:55.315Z,2.80
2022-08-03T07:58:45.075Z,3.20
2022-08-03T08:01:37.962Z,2.70
2022-08-03T08:04:28.255Z,2.80
2022-08-03T08:07:18.455Z,2.50
2022-08-03T08:10:12.716Z,3.00
2022-08-03T08:13:03.244Z,2.50
2022-08-03T08:15:53.765Z,2.50
2022-08-03T08:18:43.547Z,2.80
2022-08-03T08:21:52.966Z,2.30
2022-08-03T08:24:44.672Z,2.70
2022-08-03T08:28:25.302Z,2.40
2022-08-03T08:30:44.952Z,2.80
2022-08-03T08:34:03.241Z,2.70
2022-08-03T08:36:45.874Z,2.70
2022-08-03T08:39:37.551Z,2.70
2022-08-03T08:42:27.769Z,2.80
2022-08-03T08:45:18.934Z,2.70
2022-08-03T08:48:12.034Z,2.60
2022-08-03T08:51:03.633Z,3.00
2022-08-03T08:53:55.087Z,3.00
2022-08-03T08:56:55.705Z,3.10
2022-08-03T08:59:48.327Z,2.70
2022-08-03T09:02:39.932Z,3.00
2022-08-03T09:05:55.052Z,2.80
2022-08-03T09:08:43.139Z,3.00
2022-08-03T09:12:00.486Z,2.80
2022-08-03T09:15:00.867Z,3.20
2022-08-03T09:17:55.272Z,3.10
2022-08-03T09:20:45.746Z,2.80
2022-08-03T09:24:01.648Z,2.80
2022-08-03T09:26:54.685Z,2.60
2022-08-03T09:29:48.803Z,2.70
2022-08-03T09:32:40.252Z,2.80
2022-08-03T09:38:42.530Z,2.60
2022-08-03T09:41:33.011Z,2.90
2022-08-03T09:44:38.127Z,2.60
2022-08-03T09:47:34.208Z,2.60
2022-08-03T09:50:24.024Z,3.00
2022-08-03T09:53:15.702Z,3.10
2022-08-03T09:56:33.435Z,3.00
2022-08-03T09:59:25.375Z,3.20
2022-08-03T10:02:26.114Z,3.50
2022-08-03T10:05:19.634Z,2.90
2022-08-03T10:08:18.472Z,2.90
2022-08-03T10:11:08.602Z,3.20
2022-08-03T10:14:01.406Z,3.50
2022-08-03T10:16:51.842Z,3.20
2022-08-03T10:19:42.318Z,3.20
2022-08-03T10:22:36.416Z,3.20
2022-08-03T10:25:32.993Z,3.20
2022-08-03T10:28:24.284Z,3.10
2022-08-03T10:31:17.675Z,3.00
2022-08-03T10:34:13.287Z,3.10
2022-08-03T10:37:09.470Z,3.00
2022-08-03T10:40:01.442Z,3.10
2022-08-03T10:42:56.156Z,2.90
2022-08-03T10:45:47.420Z,2.80
2022-08-03T10:48:52.572Z,3.10
2022-08-03T10:51:43.852Z,2.90
2022-08-03T10:55:03.551Z,3.00
2022-08-03T10:57:59.173Z,2.60
2022-08-03T11:00:53.406Z,2.60
2022-08-03T11:04:18.294Z,2.70
2022-08-03T11:07:24.929Z,3.00
2022-08-03T11:10:32.734Z,2.90
2022-08-03T11:13:25.282Z,2.90
2022-08-03T11:16:23.629Z,3.10
2022-08-03T11:19:15.869Z,3.20
2022-08-03T11:22:05.804Z,3.00
2022-08-03T11:25:05.723Z,3.10
2022-08-03T11:28:30.838Z,2.90
2022-08-03T11:31:57.937Z,2.70
2022-08-03T11:35:10.871Z,3.00
2022-08-03T11:38:12.334Z,3.00
2022-08-03T11:41:02.845Z,2.50
2022-08-03T11:43:53.347Z,2.60
2022-08-03T11:46:43.466Z,2.80
2022-08-03T11:49:34.191Z,2.80
2022-08-03T11:52:27.298Z,2.70
2022-08-03T11:55:20.706Z,2.70
2022-08-03T11:59:17.419Z,2.60
2022-08-03T12:01:28.326Z,2.70
2022-08-03T12:04:18.484Z,2.40
2022-08-03T12:07:09.107Z,2.60
2022-08-03T12:10:13.766Z,2.60
2022-08-03T12:14:05.773Z,2.60
2022-08-03T12:16:23.872Z,2.50
2022-08-03T12:19:13.902Z,2.90
2022-08-03T12:22:04.055Z,2.50
2022-08-03T12:24:54.966Z,2.60
2022-08-03T12:27:45.286Z,2.70
2022-08-03T12:30:36.070Z,2.70
2022-08-03T12:33:28.061Z,2.60
2022-08-03T12:36:17.723Z,2.70
2022-08-03T12:39:11.920Z,2.60
2022-08-03T12:42:01.552Z,2.50
2022-08-03T12:44:51.494Z,2.70
2022-08-03T12:47:54.794Z,2.80
2022-08-03T12:50:45.595Z,2.40
2022-08-03T12:53:43.941Z,2.60
2022-08-03T12:56:34.713Z,2.60
2022-08-03T12:59:34.904Z,2.70
2022-08-03T13:02:28.953Z,2.60
2022-08-03T13:05:19.190Z,2.60
2022-08-03T13:08:21.755Z,2.80
2022-08-03T13:11:55.837Z,2.60
2022-08-03T13:14:37.650Z,2.30
2022-08-03T13:17:29.300Z,2.70
2022-08-03T13:20:19.016Z,2.60
2022-08-03T13:23:12.470Z,2.40
2022-08-03T13:26:13.001Z,2.60
2022-08-03T13:29:03.188Z,2.60
2022-08-03T13:31:56.420Z,2.70
2022-08-03T13:34:46.874Z,2.50
2022-08-03T13:37:37.704Z,2.70
2022-08-03T13:40:30.285Z,2.50
2022-08-03T13:43:20.906Z,2.80
2022-08-03T13:46:11.605Z,2.80
2022-08-03T13:49:02.148Z,2.70
2022-08-03T13:51:52.132Z,3.00
2022-08-03T13:54:43.790Z,2.60
2022-08-03T13:58:03.132Z,2.60
2022-08-03T14:00:56.382Z,2.90
2022-08-03T14:03:48.925Z,2.70
2022-08-03T14:06:39.228Z,2.70
2022-08-03T14:09:35.878Z,2.50
2022-08-03T14:12:26.686Z,2.90
2022-08-03T14:15:17.016Z,2.50
2022-08-03T14:18:07.106Z,3.00
2022-08-03T14:21:00.792Z,2.90
2022-08-03T14:23:56.867Z,2.80
2022-08-03T14:26:47.763Z,2.80
2022-08-03T14:29:38.317Z,2.70
2022-08-03T14:32:29.088Z,2.90
2022-08-03T14:35:18.851Z,2.90
2022-08-03T14:38:09.042Z,3.00
2022-08-03T14:40:59.021Z,2.70
2022-08-03T14:44:01.354Z,2.60
2022-08-03T14:46:52.506Z,2.90
2022-08-03T14:50:34.540Z,2.70
2022-08-03T14:52:52.463Z,3.10
2022-08-03T14:55:50.296Z,3.00
2022-08-03T14:58:41.429Z,3.00
2022-08-03T15:02:04.271Z,2.50
2022-08-03T15:04:42.314Z,3.00
2022-08-03T15:07:32.274Z,2.50
2022-08-03T15:10:22.359Z,2.80
2022-08-03T15:13:21.183Z,2.80
2022-08-03T15:16:11.074Z,2.80
2022-08-03T15:19:01.115Z,2.70
2022-08-03T15:21:50.640Z,2.50
2022-08-03T15:24:41.327Z,2.90
2022-08-03T15:27:32.401Z,2.30
2022-08-03T15:30:22.782Z,2.80
2022-08-03T15:33:13.053Z,2.90
2022-08-03T15:36:03.269Z,2.60
2022-08-03T15:38:53.857Z,2.80
2022-08-03T15:41:43.990Z,2.40
2022-08-03T15:44:34.551Z,2.50
2022-08-03T15:47:25.483Z,2.10
2022-08-03T15:50:15.238Z,2.40
2022-08-03T15:53:05.792Z,2.40
2022-08-03T15:55:58.761Z,2.30
2022-08-03T15:59:03.571Z,2.40
2022-08-03T16:02:00.380Z,2.70
2022-08-03T16:04:50.793Z,2.60
2022-08-03T16:08:02.944Z,2.50
2022-08-03T16:10:54.623Z,2.50
2022-08-03T16:14:04.713Z,2.80
2022-08-03T16:16:56.441Z,2.60
2022-08-03T16:19:46.631Z,2.70
2022-08-03T16:22:42.099Z,2.30
2022-08-03T16:25:34.561Z,2.60
2022-08-03T16:28:24.770Z,2.40
2022-08-03T16:31:14.801Z,2.50
2022-08-03T16:34:04.690Z,2.60
2022-08-03T16:36:55.666Z,2.80
2022-08-03T16:39:45.237Z,2.70
2022-08-03T16:42:36.738Z,2.90
2022-08-03T16:45:26.863Z,2.80
2022-08-03T16:48:17.064Z,2.40
2022-08-03T16:51:11.515Z,2.50
2022-08-03T16:54:07.614Z,2.40
2022-08-03T16:56:58.149Z,2.70
2022-08-03T16:59:48.579Z,2.60
2022-08-03T17:02:48.188Z,2.90
2022-08-03T17:05:47.975Z,2.80
2022-08-03T17:08:40.437Z,2.70
2022-08-03T17:11:30.288Z,2.80
2022-08-03T17:14:28.583Z,2.60
2022-08-03T17:17:26.502Z,2.40
2022-08-03T17:20:18.124Z,2.90
2022-08-03T17:23:35.243Z,2.20
2022-08-03T17:26:30.391Z,2.70
2022-08-03T17:29:22.901Z,2.70
2022-08-03T17:32:18.061Z,2.90
2022-08-03T17:35:12.417Z,2.40
2022-08-03T17:38:08.881Z,2.80
2022-08-03T17:41:01.201Z,2.70
2022-08-03T17:44:15.173Z,2.50
2022-08-03T17:47:12.056Z,2.60
2022-08-03T17:50:24.649Z,2.50
2022-08-03T17:53:24.323Z,2.60
2022-08-03T17:56:42.568Z,2.60
2022-08-03T17:59:52.463Z,2.60
2022-08-03T18:03:08.015Z,2.80
2022-08-03T18:06:11.605Z,3.20
2022-08-03T18:09:05.203Z,2.60
2022-08-03T18:12:19.697Z,2.70
2022-08-03T18:15:21.359Z,2.90
2022-08-03T18:18:15.383Z,2.50
2022-08-03T18:21:09.305Z,2.60
2022-08-03T18:24:07.436Z,2.70
2022-08-03T18:27:02.307Z,2.80
2022-08-03T18:29:54.872Z,2.50
2022-08-03T18:33:01.133Z,2.70
2022-08-03T18:35:56.725Z,2.60
2022-08-03T18:38:47.515Z,2.80
2022-08-03T18:41:42.094Z,2.60
2022-08-03T18:44:52.553Z,2.40
2022-08-03T18:47:56.061Z,2.40
2022-08-03T18:50:54.752Z,2.30
2022-08-03T18:54:02.632Z,2.40
2022-08-03T18:56:57.274Z,2.30
2022-08-03T18:59:54.130Z,2.20
2022-08-03T19:02:49.686Z,2.30
2022-08-03T19:06:04.463Z,2.20
2022-08-03T19:09:05.158Z,2.30
2022-08-03T19:12:14.443Z,2.30
2022-08-03T19:15:18.089Z,2.00
2022-08-03T19:18:26.856Z,2.20
2022-08-03T19:21:20.569Z,2.20
2022-08-03T19:24:13.994Z,2.20
2022-08-03T19:27:06.245Z,2.00
2022-08-03T19:30:04.931Z,2.00
2022-08-03T19:32:59.207Z,2.00
2022-08-03T19:35:55.547Z,2.10
2022-08-03T19:38:48.326Z,2.10
2022-08-03T19:41:53.586Z,2.10
2022-08-03T19:44:51.098Z,2.30
2022-08-03T19:47:47.056Z,2.20
2022-08-03T19:50:44.512Z,2.20
2022-08-03T19:53:42.808Z,2.20
2022-08-03T19:56:34.584Z,2.00
2022-08-03T19:59:26.522Z,2.00
2022-08-03T20:02:25.549Z,2.20
2022-08-03T20:05:16.286Z,2.20
2022-08-03T20:08:08.051Z,2.30
2022-08-03T20:11:01.811Z,2.20
2022-08-03T20:13:56.077Z,2.20
2022-08-03T20:16:47.130Z,2.50
2022-08-03T20:19:37.065Z,2.30
2022-08-03T20:22:33.031Z,2.70
2022-08-03T20:25:38.055Z,2.30
2022-08-03T20:28:50.426Z,2.60
2022-08-03T20:31:41.472Z,2.80
2022-08-03T20:34:32.007Z,2.50
2022-08-03T20:37:23.248Z,2.60
2022-08-03T20:40:13.862Z,2.70
2022-08-03T20:43:04.947Z,2.70
2022-08-03T20:45:59.125Z,2.50
2022-08-03T20:49:07.708Z,2.60
2022-08-03T20:51:59.053Z,2.60
2022-08-03T20:54:51.433Z,2.50
2022-08-03T20:57:43.389Z,2.70
2022-08-03T21:00:44.658Z,2.70
2022-08-03T21:03:40.958Z,2.50
2022-08-03T21:06:53.418Z,2.50
2022-08-03T21:09:51.894Z,2.60
2022-08-03T21:12:46.386Z,2.60
2022-08-03T21:16:02.560Z,2.60
2022-08-03T21:18:54.741Z,2.50
2022-08-03T21:21:48.208Z,2.60
2022-08-03T21:24:45.154Z,2.80
2022-08-03T21:27:35.516Z,2.30
2022-08-03T21:30:27.826Z,2.60
2022-08-03T21:33:18.293Z,2.30
2022-08-03T21:36:10.910Z,2.40
2022-08-03T21:39:02.265Z,2.30
2022-08-03T21:41:52.028Z,2.20
2022-08-03T21:44:42.301Z,2.20
2022-08-03T21:47:37.090Z,2.40
2022-08-03T21:50:27.339Z,2.30
2022-08-03T21:53:17.950Z,2.40
2022-08-03T21:56:10.973Z,2.60
2022-08-03T21:59:04.879Z,2.60
2022-08-03T22:01:58.522Z,2.30
2022-08-03T22:04:53.206Z,2.10
2022-08-03T22:07:46.422Z,2.10
2022-08-03T22:10:36.678Z,4.70
2022-08-03T22:13:44.120Z,4.00
2022-08-03T22:16:35.274Z,4.80
2022-08-03T22:19:24.996Z,3.00
2022-08-03T22:22:15.099Z,2.50
2022-08-03T22:25:11.592Z,2.40
2022-08-03T22:28:03.468Z,2.50
2022-08-03T22:30:54.647Z,2.40
2022-08-03T22:33:48.844Z,2.40
2022-08-03T22:36:41.837Z,2.60
2022-08-03T22:39:32.187Z,2.20
2022-08-03T22:42:37.020Z,2.30
2022-08-03T22:46:06.295Z,2.20
2022-08-03T22:48:41.057Z,2.40
2022-08-03T22:51:32.440Z,2.40
2022-08-03T22:54:22.668Z,2.40
2022-08-03T22:57:14.138Z,2.70
2022-08-03T23:00:07.542Z,2.60
2022-08-03T23:03:01.926Z,2.40
2022-08-03T23:06:08.742Z,2.60
2022-08-03T23:08:59.475Z,2.60
2022-08-03T23:11:50.069Z,2.30
2022-08-03T23:14:41.810Z,2.40
2022-08-03T23:17:33.517Z,2.20
2022-08-03T23:20:28.941Z,2.40
2022-08-03T23:23:44.668Z,2.60
2022-08-03T23:26:35.714Z,2.70
2022-08-03T23:29:27.674Z,2.50
2022-08-03T23:32:21.131Z,2.50
2022-08-03T23:36:27.586Z,2.50
2022-08-03T23:38:41.039Z,2.80
2022-08-03T23:41:32.229Z,2.80
2022-08-03T23:44:24.319Z,2.60
2022-08-03T23:47:16.102Z,2.70
2022-08-03T23:50:06.164Z,2.70
2022-08-03T23:53:10.149Z,2.80
2022-08-03T23:56:11.351Z,2.70
2022-08-03T23:59:15.902Z,2.70
